This is the latest recevied weather packets stored in our database for station/object Kisslegg. If no packets are shown the sender has not sent any weather packets the latest 10 day(s).
| Time | Temp. | Humidity | Pressure | Rain* | Wind** | Luminosity | Snow |
|---|---|---|---|---|---|---|---|
| 1787886129 | 23.33° C | 64% | 1008.1 hPa | 0.25 mm | - | - | - |
| 1787884330 | 23.33° C | 65% | 1008.1 hPa | 0.25 mm | - | - | - |
| 1787882529 | 23.33° C | 65% | 1008.3 hPa | 0.25 mm | - | - | - |
| 1787880729 | 22.78° C | 69% | 1008.3 hPa | 0.25 mm | - | - | - |
| 1787878929 | 22.78° C | 70% | 1008.4 hPa | 0.25 mm | - | - | - |
| 1787877131 | 22.78° C | 73% | 1008.5 hPa | 0.25 mm | - | - | - |
| 1787875331 | 22.78° C | 75% | 1008.6 hPa | 0.25 mm | - | - | - |
| 1787873530 | 22.78° C | 76% | 1008.9 hPa | 0.25 mm | - | - | - |
| 1787871732 | 22.22° C | 80% | 1009.2 hPa | 0.25 mm | - | - | - |
| 1787869931 | 22.78° C | 81% | 1009.2 hPa | 0.25 mm | - | - | - |
| 1787868132 | 22.78° C | 79% | 1009.3 hPa | 0 mm | - | - | - |
| 1787866332 | 23.33° C | 76% | 1009.5 hPa | 0.51 mm | - | - | - |
| 1787864531 | 23.89° C | 76% | 1009.3 hPa | 0.51 mm | - | - | - |
| 1787862731 | 23.89° C | 76% | 1009.4 hPa | 0.51 mm | - | - | - |
| 1787860930 | 24.44° C | 75% | 1009.7 hPa | 0.51 mm | - | - | - |
| 1787859131 | 24.44° C | 73% | 1009.4 hPa | 0.51 mm | - | - | - |
| 1787857331 | 25.56° C | 70% | 1009.7 hPa | 0.51 mm | - | - | - |
| 1787855530 | 25.56° C | 69% | 1009.5 hPa | 0.51 mm | - | - | - |
| 1787853731 | 26.11° C | 67% | 1009.5 hPa | 0.51 mm | - | - | - |
| 1787851930 | 26.67° C | 65% | 1009.6 hPa | 0.51 mm | - | - | - |
| 1787850130 | 27.22° C | 64% | 1009.8 hPa | 0.51 mm | - | - | - |
| 1787848330 | 27.78° C | 63% | 1009.7 hPa | 0.51 mm | - | - | - |
| 1787846530 | 28.89° C | 62% | 1009.5 hPa | 0.51 mm | - | - | - |
| 1787844731 | 29.44° C | 58% | 1009.7 hPa | 0.51 mm | - | - | - |
| 1787842931 | 29.44° C | 57% | 1009.6 hPa | 0.51 mm | - | - | - |
* Rain since midnight (hover to see other rain measurements)
** Current wind speed in m/s (hover to see current wind gust speed)